Alyeska Resort
Max's Hourly Weather Roundup
ALYESKA_MAX 3/30/2015
Click Here for Graph

        DATE  TIME   Air  Wind  Wind  Wind  BATT   Rel
                    Temp   Spd   Dir  Gust  Volt  Hum%
                      F   MPH   AVG   MPH   AVG   AVG

   3/30/2015 17:00    29    12    49    20 13.73    86
   3/30/2015 16:00    29    11    52    21 13.74    90
   3/30/2015 15:00    29     9    58    20 13.75    91
   3/30/2015 14:00    30     6    69    17 13.75    92
   3/30/2015 13:00    29     3    64     8 13.76    92
   3/30/2015 12:00    30     4   114    15 13.73    87
   3/30/2015 11:00    29     7    75    26 13.74    90
   3/30/2015 10:00    28     9    59    23 13.84    92
   3/30/2015 09:00    28    10    72    23 12.99    93
   3/30/2015 08:00    27     7    73    18 12.80    95
   3/30/2015 07:00    28    15    94    30 12.80    90
   3/30/2015 06:00    27    11    92    22 12.81    95
   3/30/2015 05:00    27    14   108    28 12.82    95
   3/30/2015 04:00    27     9    87    25 12.83    97
   3/30/2015 03:00    27     9    62    17 12.85    98
   3/30/2015 02:00    27    10    84    30 12.87    97
   3/30/2015 01:00    28    11    83    33 12.89    96
   3/29/2015 24:00    28    11    63    27 12.91    96
   3/29/2015 23:00    28    12    63    28 12.94    97
   3/29/2015 22:00    28    10    82    28 12.99    98
   3/29/2015 21:00    28     9    97    27 13.10    98
   3/29/2015 20:00    28    11    79    31 13.35    99
   3/29/2015 19:00    28     8    81    27 13.84   100
   3/29/2015 18:00    28     8   104    25 13.83    98


Click Here for Graph